createdAt,value
2023-04-29T20:01:55.284Z,47.36
2023-04-29T20:02:59.548Z,46.98
2023-04-29T20:04:03.334Z,47.02
2023-04-29T20:05:10.211Z,46.89
2023-04-29T20:06:16.539Z,46.96
2023-04-29T20:07:20.364Z,47.14
2023-04-29T20:08:24.062Z,47.50
2023-04-29T20:09:27.852Z,47.60
2023-04-29T20:10:31.757Z,47.70
2023-04-29T20:11:35.456Z,47.28
2023-04-29T20:12:39.293Z,47.11
2023-04-29T20:13:43.045Z,46.83
2023-04-29T20:14:46.891Z,47.60
2023-04-29T20:15:50.677Z,47.09
2023-04-29T20:16:57.583Z,46.60
2023-04-29T20:18:02.704Z,47.06
2023-04-29T20:19:06.534Z,47.02
2023-04-29T20:20:10.843Z,47.25
2023-04-29T20:21:14.636Z,46.60
2023-04-29T20:22:18.468Z,47.13
2023-04-29T20:23:22.193Z,47.13
2023-04-29T20:24:25.995Z,46.78
2023-04-29T20:25:29.801Z,46.48
2023-04-29T20:26:33.595Z,46.07
2023-04-29T20:27:37.416Z,46.61
2023-04-29T20:28:41.263Z,46.55
2023-04-29T20:29:45.041Z,46.26
2023-04-29T20:30:48.792Z,46.30
2023-04-29T20:31:52.663Z,46.21
2023-04-29T20:32:58.206Z,46.50
2023-04-29T20:34:01.882Z,46.71
2023-04-29T20:35:06.044Z,46.51
2023-04-29T20:36:09.781Z,46.18
2023-04-29T20:37:13.554Z,46.42
2023-04-29T20:38:17.395Z,46.17
2023-04-29T20:39:21.288Z,46.40
2023-04-29T20:40:25.100Z,46.11
2023-04-29T20:41:28.911Z,46.54
2023-04-29T20:42:32.690Z,46.43
2023-04-29T20:43:36.384Z,46.15
2023-04-29T20:44:40.528Z,46.39
2023-04-29T20:45:44.331Z,46.15
2023-04-29T20:46:48.051Z,46.24
2023-04-29T20:47:51.782Z,45.96
2023-04-29T20:48:57.175Z,45.78
2023-04-29T20:50:01.387Z,45.67
2023-04-29T20:51:05.326Z,45.96
2023-04-29T20:52:09.194Z,46.30
2023-04-29T20:53:12.892Z,46.11
2023-04-29T20:54:16.677Z,46.39
2023-04-29T20:55:20.475Z,45.97
2023-04-29T20:56:24.246Z,46.13
2023-04-29T20:57:28.087Z,46.64
2023-04-29T20:58:31.833Z,46.44
2023-04-29T20:59:35.618Z,46.16
2023-04-29T21:00:39.381Z,46.17
2023-04-29T21:01:43.214Z,46.32
2023-04-29T21:02:47.045Z,46.18
2023-04-29T21:03:50.925Z,46.51
2023-04-29T21:04:56.280Z,46.35
2023-04-29T21:05:59.984Z,46.20
2023-04-29T21:07:04.174Z,46.32
2023-04-29T21:08:07.911Z,46.12
2023-04-29T21:09:11.598Z,46.03
2023-04-29T21:10:15.393Z,46.00
2023-04-29T21:11:19.161Z,45.96
2023-04-29T21:12:22.924Z,45.83
2023-04-29T21:13:26.644Z,45.81
2023-04-29T21:14:30.446Z,45.86
2023-04-29T21:15:34.145Z,45.88
2023-04-29T21:16:37.917Z,46.37
2023-04-29T21:17:41.734Z,46.30
2023-04-29T21:18:45.839Z,46.43
2023-04-29T21:19:49.622Z,46.50
2023-04-29T21:20:54.942Z,46.46
2023-04-29T21:21:58.601Z,46.33
2023-04-29T21:23:02.333Z,46.04
2023-04-29T21:24:06.384Z,46.24
2023-04-29T21:25:10.435Z,46.07
2023-04-29T21:26:14.120Z,46.30
2023-04-29T21:27:17.896Z,46.05
2023-04-29T21:28:21.713Z,46.41
2023-04-29T21:29:25.534Z,46.27
2023-04-29T21:30:29.333Z,46.21
2023-04-29T21:31:33.172Z,45.97
2023-04-29T21:32:37.022Z,46.06
2023-04-29T21:33:40.821Z,45.79
2023-04-29T21:34:44.509Z,45.94
2023-04-29T21:35:49.762Z,46.23
2023-04-29T21:36:55.699Z,46.06
2023-04-29T21:37:59.433Z,46.03
2023-04-29T21:39:03.231Z,45.89
2023-04-29T21:40:08.140Z,46.11
2023-04-29T21:41:19.437Z,46.32
2023-04-29T21:42:24.286Z,46.36
2023-04-29T21:43:29.237Z,45.89
2023-04-29T21:44:34.109Z,45.91
2023-04-29T21:45:38.172Z,46.01
2023-04-29T21:46:42.303Z,45.72
2023-04-29T21:47:46.309Z,46.30
2023-04-29T21:48:50.200Z,46.37
2023-04-29T21:49:54.876Z,46.44
2023-04-29T21:50:59.306Z,46.42
2023-04-29T21:52:04.918Z,46.74
2023-04-29T21:53:08.753Z,46.31
2023-04-29T21:54:12.555Z,46.33
2023-04-29T21:55:16.337Z,46.03
2023-04-29T21:56:20.290Z,45.98
2023-04-29T21:57:35.538Z,45.89
2023-04-29T21:58:47.090Z,45.62
2023-04-29T21:59:50.855Z,45.99
2023-04-29T22:00:54.659Z,45.70
2023-04-29T22:01:58.474Z,45.85
2023-04-29T22:03:02.847Z,45.73
2023-04-29T22:04:06.858Z,45.75
2023-04-29T22:05:10.745Z,45.82
2023-04-29T22:06:14.575Z,45.96
2023-04-29T22:07:20.354Z,45.99
2023-04-29T22:08:24.698Z,45.99
2023-04-29T22:09:28.518Z,45.96
2023-04-29T22:10:32.352Z,45.75
2023-04-29T22:11:36.224Z,45.68
2023-04-29T22:12:39.937Z,45.62
2023-04-29T22:13:43.952Z,45.70
2023-04-29T22:14:47.756Z,45.87
2023-04-29T22:15:51.526Z,45.92
2023-04-29T22:16:55.309Z,45.70
2023-04-29T22:17:59.118Z,45.64
2023-04-29T22:19:02.941Z,45.98
2023-04-29T22:20:07.898Z,45.95
2023-04-29T22:21:11.630Z,45.77
2023-04-29T22:22:15.440Z,45.85
2023-04-29T22:23:20.859Z,46.25
2023-04-29T22:24:24.545Z,45.86
2023-04-29T22:25:28.465Z,46.12
2023-04-29T22:26:32.196Z,46.01
2023-04-29T22:27:36.165Z,46.36
2023-04-29T22:28:39.808Z,46.04
2023-04-29T22:29:43.508Z,46.51
2023-04-29T22:30:47.252Z,46.16
2023-04-29T22:31:50.998Z,46.45
2023-04-29T22:32:54.831Z,46.38
2023-04-29T22:33:58.528Z,46.66
2023-04-29T22:35:02.249Z,46.92
2023-04-29T22:36:06.221Z,46.58
2023-04-29T22:37:09.912Z,47.00
2023-04-29T22:38:13.617Z,46.42
2023-04-29T22:39:19.032Z,46.48
2023-04-29T22:40:22.744Z,46.15
2023-04-29T22:41:26.496Z,46.41
2023-04-29T22:42:30.315Z,46.54
2023-04-29T22:43:34.108Z,46.39
2023-04-29T22:44:37.874Z,46.16
2023-04-29T22:45:41.666Z,46.41
2023-04-29T22:46:45.468Z,46.72
2023-04-29T22:47:49.243Z,46.73
2023-04-29T22:48:52.988Z,46.33
2023-04-29T22:49:56.729Z,46.92
2023-04-29T22:51:00.826Z,47.41
2023-04-29T22:52:04.631Z,47.20
2023-04-29T22:53:08.312Z,46.90
2023-04-29T22:54:11.969Z,46.69
2023-04-29T22:55:17.536Z,47.13
2023-04-29T22:56:21.265Z,46.64
2023-04-29T22:57:25.038Z,46.77
2023-04-29T22:58:28.789Z,46.67
2023-04-29T22:59:32.516Z,47.19
2023-04-29T23:00:36.309Z,47.05
2023-04-29T23:01:40.076Z,46.79
2023-04-29T23:02:43.989Z,46.73
2023-04-29T23:03:48.160Z,46.75
2023-04-29T23:04:51.992Z,46.78
2023-04-29T23:05:59.209Z,47.32
2023-04-29T23:07:03.086Z,46.91
2023-04-29T23:08:07.016Z,46.75
2023-04-29T23:09:10.743Z,47.22
2023-04-29T23:10:14.550Z,46.71
2023-04-29T23:11:19.939Z,46.97
2023-04-29T23:12:23.688Z,46.51
2023-04-29T23:13:27.474Z,46.74
2023-04-29T23:14:31.268Z,46.69
2023-04-29T23:15:35.052Z,47.03
2023-04-29T23:16:38.792Z,46.85
2023-04-29T23:17:42.601Z,47.00
2023-04-29T23:18:46.331Z,46.88
2023-04-29T23:19:50.020Z,46.67
2023-04-29T23:20:53.802Z,46.82
2023-04-29T23:21:57.563Z,47.14
2023-04-29T23:23:01.343Z,46.63
2023-04-29T23:24:05.698Z,46.74
2023-04-29T23:25:09.967Z,46.61
2023-04-29T23:26:13.697Z,46.71
2023-04-29T23:27:19.095Z,46.55
2023-04-29T23:28:22.867Z,46.22
2023-04-29T23:29:26.551Z,46.93
2023-04-29T23:30:30.270Z,46.60
2023-04-29T23:31:34.057Z,46.52
2023-04-29T23:32:37.873Z,46.45
2023-04-29T23:33:41.627Z,46.33
2023-04-29T23:34:45.321Z,46.63
2023-04-29T23:35:52.063Z,47.04
2023-04-29T23:36:55.866Z,46.45
2023-04-29T23:37:59.708Z,46.77
2023-04-29T23:39:03.466Z,46.74
2023-04-29T23:40:08.621Z,46.88
2023-04-29T23:41:12.363Z,46.63
2023-04-29T23:42:16.113Z,46.80
2023-04-29T23:43:21.506Z,46.42
2023-04-29T23:44:25.249Z,46.97
2023-04-29T23:45:28.915Z,46.85
2023-04-29T23:46:32.794Z,46.73
2023-04-29T23:47:36.553Z,46.98
2023-04-29T23:48:40.282Z,46.86
2023-04-29T23:49:43.999Z,46.84
2023-04-29T23:50:47.987Z,46.87
2023-04-29T23:51:51.805Z,46.57
2023-04-29T23:52:55.530Z,46.79
2023-04-29T23:53:59.266Z,46.93
2023-04-29T23:55:03.244Z,46.55
2023-04-29T23:56:07.609Z,46.80
2023-04-29T23:57:11.394Z,46.68
2023-04-29T23:58:15.144Z,46.72
2023-04-29T23:59:20.543Z,46.76
